Terminal Aerodrome Forecast
Issued by NWS

Home | Current Version | Previous Version | Text Only | Print | Product List | Glossary On
Versions: 1 2 3 4 5 6 7 8 9 10 11 12 13 14 15
287
FTAK31 PAJN 090521
TAFAWG
TAF
PAWG 090521Z 0906/1006 14008G14KT 6SM -RA BR SCT007 OVC030
      WS020/17040KT
     FM091000 14011KT 6SM -RA SCT007 OVC035
     FM091400 14010KT P6SM VCSH FEW008 SCT015 OVC035
     FM092000 VRB06KT P6SM SCT020 BKN040 BKN060
     FM100400 14010KT P6SM SCT030 OVC060
      AMD LTD TO CLD VIS AND WIND 0906/0915=

USA.gov is the U.S. government's official web portal to all federal, state and local government web resources and services.